sensor_id;sensor_type;location;lat;lon;timestamp;P1;durP1;ratioP1;P2;durP2;ratioP2
63110;SDS011;49201;53.426;10.300;2023-06-14T00:00:13;3.90;;;2.90;;
63110;SDS011;49201;53.426;10.300;2023-06-14T00:02:40;5.20;;;2.70;;
63110;SDS011;49201;53.426;10.300;2023-06-14T00:05:05;4.00;;;2.50;;
63110;SDS011;49201;53.426;10.300;2023-06-14T00:07:35;3.73;;;2.50;;
63110;SDS011;49201;53.426;10.300;2023-06-14T00:10:03;5.07;;;2.97;;
63110;SDS011;49201;53.426;10.300;2023-06-14T00:12:30;5.17;;;2.77;;
63110;SDS011;49201;53.426;10.300;2023-06-14T00:14:56;4.93;;;2.63;;
63110;SDS011;49201;53.426;10.300;2023-06-14T00:17:22;8.63;;;2.53;;
63110;SDS011;49201;53.426;10.300;2023-06-14T00:19:47;5.43;;;2.70;;
63110;SDS011;49201;53.426;10.300;2023-06-14T00:22:13;4.97;;;2.60;;
63110;SDS011;49201;53.426;10.300;2023-06-14T00:24:38;3.43;;;2.67;;
63110;SDS011;49201;53.426;10.300;2023-06-14T00:27:04;5.83;;;2.87;;
63110;SDS011;49201;53.426;10.300;2023-06-14T00:29:30;4.13;;;3.20;;
63110;SDS011;49201;53.426;10.300;2023-06-14T00:31:56;2.83;;;2.40;;
63110;SDS011;49201;53.426;10.300;2023-06-14T00:34:21;6.67;;;2.80;;
63110;SDS011;49201;53.426;10.300;2023-06-14T00:36:47;6.97;;;2.53;;
63110;SDS011;49201;53.426;10.300;2023-06-14T00:39:13;10.20;;;2.83;;
63110;SDS011;49201;53.426;10.300;2023-06-14T00:41:39;6.07;;;2.70;;
63110;SDS011;49201;53.426;10.300;2023-06-14T00:44:05;6.07;;;3.03;;
63110;SDS011;49201;53.426;10.300;2023-06-14T00:46:30;4.50;;;3.20;;
63110;SDS011;49201;53.426;10.300;2023-06-14T00:48:56;6.97;;;2.57;;
63110;SDS011;49201;53.426;10.300;2023-06-14T00:51:22;5.20;;;3.03;;
63110;SDS011;49201;53.426;10.300;2023-06-14T00:53:47;4.60;;;2.77;;
63110;SDS011;49201;53.426;10.300;2023-06-14T00:56:13;5.17;;;3.23;;
63110;SDS011;49201;53.426;10.300;2023-06-14T00:58:41;9.10;;;3.07;;
63110;SDS011;49201;53.426;10.300;2023-06-14T01:01:07;5.87;;;3.13;;
63110;SDS011;49201;53.426;10.300;2023-06-14T01:03:33;6.17;;;3.10;;
63110;SDS011;49201;53.426;10.300;2023-06-14T01:06:01;5.83;;;3.27;;
63110;SDS011;49201;53.426;10.300;2023-06-14T01:08:54;4.47;;;2.80;;
63110;SDS011;49201;53.426;10.300;2023-06-14T01:11:31;5.83;;;3.00;;
63110;SDS011;49201;53.426;10.300;2023-06-14T01:14:01;4.87;;;3.70;;
63110;SDS011;49201;53.426;10.300;2023-06-14T01:16:28;7.03;;;3.00;;
63110;SDS011;49201;53.426;10.300;2023-06-14T01:18:56;6.23;;;3.30;;
63110;SDS011;49201;53.426;10.300;2023-06-14T01:21:23;7.57;;;2.97;;
63110;SDS011;49201;53.426;10.300;2023-06-14T01:23:50;3.93;;;2.87;;
63110;SDS011;49201;53.426;10.300;2023-06-14T01:26:24;4.27;;;2.80;;
63110;SDS011;49201;53.426;10.300;2023-06-14T01:28:51;4.73;;;2.90;;
63110;SDS011;49201;53.426;10.300;2023-06-14T01:31:23;3.50;;;2.73;;
63110;SDS011;49201;53.426;10.300;2023-06-14T01:33:50;4.63;;;2.77;;
63110;SDS011;49201;53.426;10.300;2023-06-14T01:36:17;5.73;;;3.10;;
63110;SDS011;49201;53.426;10.300;2023-06-14T01:38:44;6.07;;;2.80;;
63110;SDS011;49201;53.426;10.300;2023-06-14T01:41:11;5.80;;;3.23;;
63110;SDS011;49201;53.426;10.300;2023-06-14T01:43:38;7.27;;;3.30;;
63110;SDS011;49201;53.426;10.300;2023-06-14T01:46:05;5.97;;;3.57;;
63110;SDS011;49201;53.426;10.300;2023-06-14T01:48:31;6.50;;;3.00;;
63110;SDS011;49201;53.426;10.300;2023-06-14T01:50:57;7.17;;;2.83;;
63110;SDS011;49201;53.426;10.300;2023-06-14T01:53:22;5.00;;;3.40;;
63110;SDS011;49201;53.426;10.300;2023-06-14T01:55:48;7.80;;;3.37;;
63110;SDS011;49201;53.426;10.300;2023-06-14T01:58:15;9.43;;;3.83;;
63110;SDS011;49201;53.426;10.300;2023-06-14T02:00:43;4.90;;;3.00;;
63110;SDS011;49201;53.426;10.300;2023-06-14T02:03:10;5.60;;;3.17;;
63110;SDS011;49201;53.426;10.300;2023-06-14T02:05:37;5.03;;;3.20;;
63110;SDS011;49201;53.426;10.300;2023-06-14T02:08:04;4.53;;;3.33;;
63110;SDS011;49201;53.426;10.300;2023-06-14T02:10:30;5.00;;;3.33;;
63110;SDS011;49201;53.426;10.300;2023-06-14T02:12:55;4.53;;;3.13;;
63110;SDS011;49201;53.426;10.300;2023-06-14T02:15:21;4.13;;;3.20;;
63110;SDS011;49201;53.426;10.300;2023-06-14T02:17:47;4.13;;;2.80;;
63110;SDS011;49201;53.426;10.300;2023-06-14T02:20:15;5.23;;;3.27;;
63110;SDS011;49201;53.426;10.300;2023-06-14T02:22:41;5.70;;;2.97;;
63110;SDS011;49201;53.426;10.300;2023-06-14T02:25:07;5.37;;;3.13;;
63110;SDS011;49201;53.426;10.300;2023-06-14T02:27:34;5.10;;;3.27;;
63110;SDS011;49201;53.426;10.300;2023-06-14T02:30:00;5.27;;;3.67;;
63110;SDS011;49201;53.426;10.300;2023-06-14T02:32:25;5.47;;;3.20;;
63110;SDS011;49201;53.426;10.300;2023-06-14T02:34:52;6.57;;;3.70;;
63110;SDS011;49201;53.426;10.300;2023-06-14T02:37:18;6.57;;;3.90;;
63110;SDS011;49201;53.426;10.300;2023-06-14T02:39:45;6.43;;;3.60;;
63110;SDS011;49201;53.426;10.300;2023-06-14T02:42:10;5.93;;;3.43;;
63110;SDS011;49201;53.426;10.300;2023-06-14T02:44:36;6.50;;;3.27;;
63110;SDS011;49201;53.426;10.300;2023-06-14T02:47:02;6.40;;;3.20;;
63110;SDS011;49201;53.426;10.300;2023-06-14T02:49:28;5.40;;;3.20;;
63110;SDS011;49201;53.426;10.300;2023-06-14T02:51:54;5.00;;;3.40;;
63110;SDS011;49201;53.426;10.300;2023-06-14T02:54:19;5.50;;;3.90;;
63110;SDS011;49201;53.426;10.300;2023-06-14T02:56:45;7.97;;;3.40;;
63110;SDS011;49201;53.426;10.300;2023-06-14T02:59:10;5.97;;;3.57;;
63110;SDS011;49201;53.426;10.300;2023-06-14T03:01:37;5.23;;;3.70;;
63110;SDS011;49201;53.426;10.300;2023-06-14T03:04:09;4.97;;;3.07;;
63110;SDS011;49201;53.426;10.300;2023-06-14T03:06:38;6.57;;;3.53;;
63110;SDS011;49201;53.426;10.300;2023-06-14T03:09:04;7.37;;;3.20;;
63110;SDS011;49201;53.426;10.300;2023-06-14T03:11:31;9.33;;;4.23;;
63110;SDS011;49201;53.426;10.300;2023-06-14T03:13:58;4.93;;;3.77;;
63110;SDS011;49201;53.426;10.300;2023-06-14T03:16:25;6.70;;;4.00;;
63110;SDS011;49201;53.426;10.300;2023-06-14T03:18:54;7.90;;;3.63;;
63110;SDS011;49201;53.426;10.300;2023-06-14T03:21:22;7.20;;;3.60;;
63110;SDS011;49201;53.426;10.300;2023-06-14T03:23:49;8.07;;;3.60;;
63110;SDS011;49201;53.426;10.300;2023-06-14T03:26:15;4.70;;;3.27;;
63110;SDS011;49201;53.426;10.300;2023-06-14T03:28:47;5.27;;;3.40;;
63110;SDS011;49201;53.426;10.300;2023-06-14T03:31:14;8.17;;;4.07;;
63110;SDS011;49201;53.426;10.300;2023-06-14T03:33:42;5.70;;;3.43;;
63110;SDS011;49201;53.426;10.300;2023-06-14T03:36:08;9.33;;;3.80;;
63110;SDS011;49201;53.426;10.300;2023-06-14T03:38:33;7.40;;;4.40;;
63110;SDS011;49201;53.426;10.300;2023-06-14T03:41:00;10.63;;;3.90;;
63110;SDS011;49201;53.426;10.300;2023-06-14T03:43:26;7.67;;;4.13;;
63110;SDS011;49201;53.426;10.300;2023-06-14T03:45:52;6.40;;;4.10;;
63110;SDS011;49201;53.426;10.300;2023-06-14T03:48:20;8.77;;;3.77;;
63110;SDS011;49201;53.426;10.300;2023-06-14T03:50:45;8.10;;;3.83;;
63110;SDS011;49201;53.426;10.300;2023-06-14T03:53:11;6.70;;;3.77;;
63110;SDS011;49201;53.426;10.300;2023-06-14T03:55:40;7.30;;;3.87;;
63110;SDS011;49201;53.426;10.300;2023-06-14T03:58:06;5.93;;;4.10;;
63110;SDS011;49201;53.426;10.300;2023-06-14T04:00:32;9.07;;;3.73;;
63110;SDS011;49201;53.426;10.300;2023-06-14T04:02:57;5.83;;;4.00;;
63110;SDS011;49201;53.426;10.300;2023-06-14T04:05:23;6.70;;;3.80;;
63110;SDS011;49201;53.426;10.300;2023-06-14T04:07:53;7.73;;;3.87;;
63110;SDS011;49201;53.426;10.300;2023-06-14T04:10:20;6.97;;;4.07;;
63110;SDS011;49201;53.426;10.300;2023-06-14T04:12:46;6.80;;;3.80;;
63110;SDS011;49201;53.426;10.300;2023-06-14T04:15:11;7.10;;;3.90;;
63110;SDS011;49201;53.426;10.300;2023-06-14T04:17:38;5.67;;;3.83;;
63110;SDS011;49201;53.426;10.300;2023-06-14T04:20:04;6.83;;;3.73;;
63110;SDS011;49201;53.426;10.300;2023-06-14T04:22:31;6.77;;;4.10;;
63110;SDS011;49201;53.426;10.300;2023-06-14T04:24:58;8.10;;;4.30;;
63110;SDS011;49201;53.426;10.300;2023-06-14T04:27:26;7.40;;;4.27;;
63110;SDS011;49201;53.426;10.300;2023-06-14T04:29:53;7.07;;;4.20;;
63110;SDS011;49201;53.426;10.300;2023-06-14T04:32:23;6.70;;;4.00;;
63110;SDS011;49201;53.426;10.300;2023-06-14T04:34:54;5.57;;;3.73;;
63110;SDS011;49201;53.426;10.300;2023-06-14T04:37:21;6.00;;;3.87;;
63110;SDS011;49201;53.426;10.300;2023-06-14T04:39:47;7.87;;;4.17;;
63110;SDS011;49201;53.426;10.300;2023-06-14T04:42:13;8.90;;;4.20;;
63110;SDS011;49201;53.426;10.300;2023-06-14T04:44:43;8.90;;;4.10;;
63110;SDS011;49201;53.426;10.300;2023-06-14T04:47:10;5.83;;;3.77;;
63110;SDS011;49201;53.426;10.300;2023-06-14T04:49:37;10.43;;;4.47;;
63110;SDS011;49201;53.426;10.300;2023-06-14T04:52:05;5.73;;;4.10;;
63110;SDS011;49201;53.426;10.300;2023-06-14T04:54:34;7.60;;;3.97;;
63110;SDS011;49201;53.426;10.300;2023-06-14T04:57:03;6.93;;;4.60;;
63110;SDS011;49201;53.426;10.300;2023-06-14T04:59:32;9.87;;;3.83;;
63110;SDS011;49201;53.426;10.300;2023-06-14T05:02:01;6.67;;;3.87;;
63110;SDS011;49201;53.426;10.300;2023-06-14T05:04:26;6.97;;;3.77;;
63110;SDS011;49201;53.426;10.300;2023-06-14T05:06:53;9.13;;;3.90;;
63110;SDS011;49201;53.426;10.300;2023-06-14T05:09:22;15.67;;;4.13;;
63110;SDS011;49201;53.426;10.300;2023-06-14T05:11:49;9.00;;;4.23;;
63110;SDS011;49201;53.426;10.300;2023-06-14T05:14:15;6.17;;;4.00;;
63110;SDS011;49201;53.426;10.300;2023-06-14T05:16:41;6.87;;;4.07;;
63110;SDS011;49201;53.426;10.300;2023-06-14T05:19:08;8.23;;;4.27;;
63110;SDS011;49201;53.426;10.300;2023-06-14T05:21:33;7.37;;;3.87;;
63110;SDS011;49201;53.426;10.300;2023-06-14T05:24:00;7.80;;;4.17;;
63110;SDS011;49201;53.426;10.300;2023-06-14T05:26:26;8.20;;;4.17;;
63110;SDS011;49201;53.426;10.300;2023-06-14T05:28:58;6.03;;;4.07;;
63110;SDS011;49201;53.426;10.300;2023-06-14T05:31:25;6.93;;;4.07;;
63110;SDS011;49201;53.426;10.300;2023-06-14T05:33:52;7.50;;;4.20;;
63110;SDS011;49201;53.426;10.300;2023-06-14T05:36:18;6.23;;;3.50;;
63110;SDS011;49201;53.426;10.300;2023-06-14T05:38:44;5.10;;;3.73;;
63110;SDS011;49201;53.426;10.300;2023-06-14T05:41:10;7.73;;;3.70;;
63110;SDS011;49201;53.426;10.300;2023-06-14T05:43:36;7.27;;;4.33;;
63110;SDS011;49201;53.426;10.300;2023-06-14T05:46:01;4.73;;;3.70;;
63110;SDS011;49201;53.426;10.300;2023-06-14T05:48:28;6.10;;;3.97;;
63110;SDS011;49201;53.426;10.300;2023-06-14T05:50:54;5.13;;;3.60;;
63110;SDS011;49201;53.426;10.300;2023-06-14T05:53:19;4.90;;;3.20;;
63110;SDS011;49201;53.426;10.300;2023-06-14T05:55:45;9.10;;;3.63;;
63110;SDS011;49201;53.426;10.300;2023-06-14T05:58:10;6.03;;;3.73;;
63110;SDS011;49201;53.426;10.300;2023-06-14T06:00:36;5.27;;;3.43;;
63110;SDS011;49201;53.426;10.300;2023-06-14T06:03:01;5.23;;;3.40;;
63110;SDS011;49201;53.426;10.300;2023-06-14T06:05:27;5.40;;;3.47;;
63110;SDS011;49201;53.426;10.300;2023-06-14T06:07:52;6.13;;;3.30;;
63110;SDS011;49201;53.426;10.300;2023-06-14T06:10:18;5.03;;;3.40;;
63110;SDS011;49201;53.426;10.300;2023-06-14T06:12:43;5.33;;;3.77;;
63110;SDS011;49201;53.426;10.300;2023-06-14T06:15:09;6.93;;;3.87;;
63110;SDS011;49201;53.426;10.300;2023-06-14T06:17:37;3.80;;;3.23;;
63110;SDS011;49201;53.426;10.300;2023-06-14T06:20:03;7.13;;;2.83;;
63110;SDS011;49201;53.426;10.300;2023-06-14T06:22:30;6.40;;;3.17;;
63110;SDS011;49201;53.426;10.300;2023-06-14T06:24:56;6.47;;;3.73;;
63110;SDS011;49201;53.426;10.300;2023-06-14T06:27:21;5.50;;;3.53;;
63110;SDS011;49201;53.426;10.300;2023-06-14T06:29:47;6.90;;;3.60;;
63110;SDS011;49201;53.426;10.300;2023-06-14T06:32:14;7.73;;;3.20;;
63110;SDS011;49201;53.426;10.300;2023-06-14T06:34:40;8.30;;;3.13;;
63110;SDS011;49201;53.426;10.300;2023-06-14T06:37:05;6.90;;;3.03;;
63110;SDS011;49201;53.426;10.300;2023-06-14T06:39:31;7.80;;;3.47;;
63110;SDS011;49201;53.426;10.300;2023-06-14T06:41:56;6.80;;;3.13;;
63110;SDS011;49201;53.426;10.300;2023-06-14T06:44:31;4.27;;;2.67;;
63110;SDS011;49201;53.426;10.300;2023-06-14T06:46:57;5.93;;;3.27;;
63110;SDS011;49201;53.426;10.300;2023-06-14T06:49:23;4.43;;;2.93;;
63110;SDS011;49201;53.426;10.300;2023-06-14T06:52:01;4.37;;;3.10;;
63110;SDS011;49201;53.426;10.300;2023-06-14T06:54:28;6.70;;;2.93;;
63110;SDS011;49201;53.426;10.300;2023-06-14T06:56:53;8.83;;;3.13;;
63110;SDS011;49201;53.426;10.300;2023-06-14T06:59:19;8.77;;;3.50;;
63110;SDS011;49201;53.426;10.300;2023-06-14T07:01:45;5.63;;;2.90;;
63110;SDS011;49201;53.426;10.300;2023-06-14T07:04:11;5.33;;;3.20;;
63110;SDS011;49201;53.426;10.300;2023-06-14T07:06:37;6.73;;;3.00;;
63110;SDS011;49201;53.426;10.300;2023-06-14T07:09:03;5.20;;;3.50;;
63110;SDS011;49201;53.426;10.300;2023-06-14T07:11:30;5.57;;;3.00;;
63110;SDS011;49201;53.426;10.300;2023-06-14T07:13:55;3.70;;;2.90;;
63110;SDS011;49201;53.426;10.300;2023-06-14T07:16:21;4.60;;;2.60;;
63110;SDS011;49201;53.426;10.300;2023-06-14T07:18:47;4.80;;;2.57;;
63110;SDS011;49201;53.426;10.300;2023-06-14T07:21:12;5.37;;;3.30;;
63110;SDS011;49201;53.426;10.300;2023-06-14T07:23:37;4.80;;;3.10;;
63110;SDS011;49201;53.426;10.300;2023-06-14T07:26:03;6.90;;;3.10;;
63110;SDS011;49201;53.426;10.300;2023-06-14T07:28:28;6.97;;;3.00;;
63110;SDS011;49201;53.426;10.300;2023-06-14T07:30:54;4.03;;;2.73;;
63110;SDS011;49201;53.426;10.300;2023-06-14T07:33:20;6.03;;;2.93;;
63110;SDS011;49201;53.426;10.300;2023-06-14T07:35:45;5.23;;;3.40;;
63110;SDS011;49201;53.426;10.300;2023-06-14T07:38:11;6.10;;;3.37;;
63110;SDS011;49201;53.426;10.300;2023-06-14T07:40:36;4.50;;;3.37;;
63110;SDS011;49201;53.426;10.300;2023-06-14T07:43:02;3.83;;;2.87;;
63110;SDS011;49201;53.426;10.300;2023-06-14T07:45:27;5.43;;;2.80;;
63110;SDS011;49201;53.426;10.300;2023-06-14T07:47:53;3.40;;;2.80;;
63110;SDS011;49201;53.426;10.300;2023-06-14T07:50:18;6.43;;;3.53;;
63110;SDS011;49201;53.426;10.300;2023-06-14T07:52:44;4.43;;;2.37;;
63110;SDS011;49201;53.426;10.300;2023-06-14T07:55:10;3.03;;;2.70;;
63110;SDS011;49201;53.426;10.300;2023-06-14T07:57:36;4.77;;;2.87;;
63110;SDS011;49201;53.426;10.300;2023-06-14T08:00:02;4.97;;;2.67;;
63110;SDS011;49201;53.426;10.300;2023-06-14T08:02:37;3.07;;;2.77;;
63110;SDS011;49201;53.426;10.300;2023-06-14T08:05:02;5.53;;;2.60;;
63110;SDS011;49201;53.426;10.300;2023-06-14T08:07:28;5.40;;;2.97;;
63110;SDS011;49201;53.426;10.300;2023-06-14T08:09:53;6.57;;;3.10;;
63110;SDS011;49201;53.426;10.300;2023-06-14T08:12:19;6.63;;;3.07;;
63110;SDS011;49201;53.426;10.300;2023-06-14T08:14:44;5.40;;;2.70;;
63110;SDS011;49201;53.426;10.300;2023-06-14T08:17:10;4.23;;;3.30;;
63110;SDS011;49201;53.426;10.300;2023-06-14T08:19:35;4.47;;;2.40;;
63110;SDS011;49201;53.426;10.300;2023-06-14T08:22:01;4.53;;;2.83;;
63110;SDS011;49201;53.426;10.300;2023-06-14T08:24:28;5.93;;;2.77;;
63110;SDS011;49201;53.426;10.300;2023-06-14T08:26:54;3.20;;;2.80;;
63110;SDS011;49201;53.426;10.300;2023-06-14T08:29:19;4.50;;;2.63;;
63110;SDS011;49201;53.426;10.300;2023-06-14T08:31:46;4.90;;;3.10;;
63110;SDS011;49201;53.426;10.300;2023-06-14T08:34:12;3.27;;;2.53;;
63110;SDS011;49201;53.426;10.300;2023-06-14T08:36:37;5.23;;;2.73;;
63110;SDS011;49201;53.426;10.300;2023-06-14T08:39:03;4.13;;;2.67;;
63110;SDS011;49201;53.426;10.300;2023-06-14T08:41:29;6.70;;;2.90;;
63110;SDS011;49201;53.426;10.300;2023-06-14T08:43:55;4.37;;;2.80;;
63110;SDS011;49201;53.426;10.300;2023-06-14T08:46:21;5.60;;;2.87;;
63110;SDS011;49201;53.426;10.300;2023-06-14T08:48:50;4.47;;;2.63;;
63110;SDS011;49201;53.426;10.300;2023-06-14T08:51:20;6.30;;;3.10;;
63110;SDS011;49201;53.426;10.300;2023-06-14T08:53:55;6.55;;;2.78;;
63110;SDS011;49201;53.426;10.300;2023-06-14T08:56:26;3.40;;;2.83;;
63110;SDS011;49201;53.426;10.300;2023-06-14T08:58:53;5.05;;;2.78;;
63110;SDS011;49201;53.426;10.300;2023-06-14T09:01:19;5.28;;;2.90;;
63110;SDS011;49201;53.426;10.300;2023-06-14T09:03:47;5.50;;;2.78;;
63110;SDS011;49201;53.426;10.300;2023-06-14T09:06:14;5.13;;;2.83;;
63110;SDS011;49201;53.426;10.300;2023-06-14T09:08:43;9.18;;;3.08;;
63110;SDS011;49201;53.426;10.300;2023-06-14T09:11:13;4.53;;;2.75;;
63110;SDS011;49201;53.426;10.300;2023-06-14T09:13:40;4.05;;;3.08;;
63110;SDS011;49201;53.426;10.300;2023-06-14T09:16:06;5.07;;;3.10;;
63110;SDS011;49201;53.426;10.300;2023-06-14T09:18:35;9.70;;;3.10;;
63110;SDS011;49201;53.426;10.300;2023-06-14T09:21:06;9.35;;;3.10;;
63110;SDS011;49201;53.426;10.300;2023-06-14T09:23:38;4.68;;;2.80;;
63110;SDS011;49201;53.426;10.300;2023-06-14T09:26:08;4.80;;;3.08;;
63110;SDS011;49201;53.426;10.300;2023-06-14T09:28:41;5.30;;;3.35;;
63110;SDS011;49201;53.426;10.300;2023-06-14T09:31:10;3.78;;;2.78;;
63110;SDS011;49201;53.426;10.300;2023-06-14T09:33:37;6.20;;;3.40;;
63110;SDS011;49201;53.426;10.300;2023-06-14T09:36:03;6.05;;;2.88;;
63110;SDS011;49201;53.426;10.300;2023-06-14T09:38:29;4.72;;;3.00;;
63110;SDS011;49201;53.426;10.300;2023-06-14T09:40:58;4.20;;;2.90;;
63110;SDS011;49201;53.426;10.300;2023-06-14T09:43:24;6.88;;;2.80;;
63110;SDS011;49201;53.426;10.300;2023-06-14T09:45:52;6.85;;;3.40;;
63110;SDS011;49201;53.426;10.300;2023-06-14T09:48:19;6.10;;;3.40;;
63110;SDS011;49201;53.426;10.300;2023-06-14T09:50:46;4.38;;;2.90;;
63110;SDS011;49201;53.426;10.300;2023-06-14T09:53:13;4.40;;;3.03;;
63110;SDS011;49201;53.426;10.300;2023-06-14T09:55:40;3.67;;;3.05;;
63110;SDS011;49201;53.426;10.300;2023-06-14T09:58:07;4.65;;;2.95;;
63110;SDS011;49201;53.426;10.300;2023-06-14T10:00:35;6.50;;;3.05;;
63110;SDS011;49201;53.426;10.300;2023-06-14T10:03:35;5.75;;;3.28;;
63110;SDS011;49201;53.426;10.300;2023-06-14T10:05:55;3.63;;;3.03;;
63110;SDS011;49201;53.426;10.300;2023-06-14T10:08:27;7.57;;;3.40;;
63110;SDS011;49201;53.426;10.300;2023-06-14T10:10:55;5.20;;;3.00;;
63110;SDS011;49201;53.426;10.300;2023-06-14T10:13:21;4.22;;;3.10;;
63110;SDS011;49201;53.426;10.300;2023-06-14T10:15:58;5.13;;;3.10;;
63110;SDS011;49201;53.426;10.300;2023-06-14T10:18:33;6.40;;;3.40;;
63110;SDS011;49201;53.426;10.300;2023-06-14T10:21:20;4.57;;;3.33;;
63110;SDS011;49201;53.426;10.300;2023-06-14T10:23:51;6.85;;;3.25;;
63110;SDS011;49201;53.426;10.300;2023-06-14T10:26:18;4.38;;;3.00;;
63110;SDS011;49201;53.426;10.300;2023-06-14T10:28:59;5.32;;;2.92;;
63110;SDS011;49201;53.426;10.300;2023-06-14T10:31:41;4.57;;;3.10;;
63110;SDS011;49201;53.426;10.300;2023-06-14T10:34:08;6.38;;;3.13;;
63110;SDS011;49201;53.426;10.300;2023-06-14T10:36:33;7.13;;;3.20;;
63110;SDS011;49201;53.426;10.300;2023-06-14T10:41:29;6.35;;;2.95;;
63110;SDS011;49201;53.426;10.300;2023-06-14T10:44:21;5.78;;;3.20;;
63110;SDS011;49201;53.426;10.300;2023-06-14T10:46:59;7.38;;;3.10;;
63110;SDS011;49201;53.426;10.300;2023-06-14T10:49:39;5.38;;;3.17;;
63110;SDS011;49201;53.426;10.300;2023-06-14T10:52:12;6.68;;;3.10;;
63110;SDS011;49201;53.426;10.300;2023-06-14T10:57:29;4.82;;;2.60;;
63110;SDS011;49201;53.426;10.300;2023-06-14T10:59:58;5.13;;;3.00;;
63110;SDS011;49201;53.426;10.300;2023-06-14T11:02:37;8.07;;;3.20;;
63110;SDS011;49201;53.426;10.300;2023-06-14T11:05:16;4.82;;;3.33;;
63110;SDS011;49201;53.426;10.300;2023-06-14T11:10:39;3.83;;;2.60;;
63110;SDS011;49201;53.426;10.300;2023-06-14T11:13:06;5.55;;;3.60;;
63110;SDS011;49201;53.426;10.300;2023-06-14T11:15:33;7.32;;;3.28;;
63110;SDS011;49201;53.426;10.300;2023-06-14T11:18:04;5.63;;;3.33;;
63110;SDS011;49201;53.426;10.300;2023-06-14T11:20:31;7.40;;;3.10;;
63110;SDS011;49201;53.426;10.300;2023-06-14T11:22:58;4.53;;;2.97;;
63110;SDS011;49201;53.426;10.300;2023-06-14T11:25:25;4.68;;;2.92;;
63110;SDS011;49201;53.426;10.300;2023-06-14T11:27:54;6.30;;;3.15;;
63110;SDS011;49201;53.426;10.300;2023-06-14T11:30:23;4.15;;;3.10;;
63110;SDS011;49201;53.426;10.300;2023-06-14T11:32:49;6.15;;;3.33;;
63110;SDS011;49201;53.426;10.300;2023-06-14T11:35:15;3.60;;;2.72;;
63110;SDS011;49201;53.426;10.300;2023-06-14T11:37:42;6.28;;;3.10;;
63110;SDS011;49201;53.426;10.300;2023-06-14T11:40:09;8.05;;;3.00;;
63110;SDS011;49201;53.426;10.300;2023-06-14T11:42:37;6.07;;;2.75;;
63110;SDS011;49201;53.426;10.300;2023-06-14T11:45:04;4.30;;;2.95;;
63110;SDS011;49201;53.426;10.300;2023-06-14T11:47:33;6.30;;;2.88;;
63110;SDS011;49201;53.426;10.300;2023-06-14T11:50:02;5.65;;;2.80;;
63110;SDS011;49201;53.426;10.300;2023-06-14T11:52:28;4.88;;;2.90;;
63110;SDS011;49201;53.426;10.300;2023-06-14T11:54:54;8.00;;;3.65;;
63110;SDS011;49201;53.426;10.300;2023-06-14T11:57:21;9.73;;;3.08;;
63110;SDS011;49201;53.426;10.300;2023-06-14T11:59:46;6.85;;;3.38;;
63110;SDS011;49201;53.426;10.300;2023-06-14T12:02:15;3.50;;;2.67;;
63110;SDS011;49201;53.426;10.300;2023-06-14T12:04:44;4.32;;;2.63;;
63110;SDS011;49201;53.426;10.300;2023-06-14T12:07:12;6.15;;;2.97;;
63110;SDS011;49201;53.426;10.300;2023-06-14T12:12:21;9.18;;;3.28;;
63110;SDS011;49201;53.426;10.300;2023-06-14T12:14:47;3.70;;;2.85;;
63110;SDS011;49201;53.426;10.300;2023-06-14T12:17:13;6.28;;;3.08;;
63110;SDS011;49201;53.426;10.300;2023-06-14T12:19:42;6.50;;;3.47;;
63110;SDS011;49201;53.426;10.300;2023-06-14T12:22:11;5.63;;;3.15;;
63110;SDS011;49201;53.426;10.300;2023-06-14T12:24:38;4.38;;;3.25;;
63110;SDS011;49201;53.426;10.300;2023-06-14T12:27:07;6.13;;;3.20;;
63110;SDS011;49201;53.426;10.300;2023-06-14T12:29:33;5.82;;;3.40;;
63110;SDS011;49201;53.426;10.300;2023-06-14T12:31:58;3.88;;;2.83;;
63110;SDS011;49201;53.426;10.300;2023-06-14T12:34:24;4.22;;;2.88;;
63110;SDS011;49201;53.426;10.300;2023-06-14T12:36:51;5.45;;;3.03;;
63110;SDS011;49201;53.426;10.300;2023-06-14T12:39:18;5.40;;;3.00;;
63110;SDS011;49201;53.426;10.300;2023-06-14T12:41:43;6.07;;;3.10;;
63110;SDS011;49201;53.426;10.300;2023-06-14T12:44:09;3.67;;;2.78;;
63110;SDS011;49201;53.426;10.300;2023-06-14T12:46:36;9.75;;;2.65;;
63110;SDS011;49201;53.426;10.300;2023-06-14T12:49:01;4.35;;;3.00;;
63110;SDS011;49201;53.426;10.300;2023-06-14T12:51:27;8.75;;;3.00;;
63110;SDS011;49201;53.426;10.300;2023-06-14T12:53:52;9.75;;;2.88;;
63110;SDS011;49201;53.426;10.300;2023-06-14T12:56:18;7.03;;;2.80;;
63110;SDS011;49201;53.426;10.300;2023-06-14T12:58:43;4.15;;;2.22;;
63110;SDS011;49201;53.426;10.300;2023-06-14T13:01:09;4.40;;;2.78;;
63110;SDS011;49201;53.426;10.300;2023-06-14T13:03:35;5.78;;;3.00;;
63110;SDS011;49201;53.426;10.300;2023-06-14T13:06:00;5.78;;;2.65;;
63110;SDS011;49201;53.426;10.300;2023-06-14T13:08:26;4.72;;;2.80;;
63110;SDS011;49201;53.426;10.300;2023-06-14T13:10:53;3.83;;;2.88;;
63110;SDS011;49201;53.426;10.300;2023-06-14T13:13:18;4.10;;;2.88;;
63110;SDS011;49201;53.426;10.300;2023-06-14T13:15:44;5.05;;;3.30;;
63110;SDS011;49201;53.426;10.300;2023-06-14T13:18:11;4.15;;;3.20;;
63110;SDS011;49201;53.426;10.300;2023-06-14T13:20:38;5.50;;;3.05;;
63110;SDS011;49201;53.426;10.300;2023-06-14T13:23:04;6.38;;;3.10;;
63110;SDS011;49201;53.426;10.300;2023-06-14T13:25:32;6.00;;;3.13;;
63110;SDS011;49201;53.426;10.300;2023-06-14T13:27:59;5.15;;;3.25;;
63110;SDS011;49201;53.426;10.300;2023-06-14T13:30:25;4.43;;;2.65;;
63110;SDS011;49201;53.426;10.300;2023-06-14T13:32:50;3.97;;;3.08;;
63110;SDS011;49201;53.426;10.300;2023-06-14T13:35:17;7.68;;;2.90;;
63110;SDS011;49201;53.426;10.300;2023-06-14T13:37:44;3.70;;;2.78;;
63110;SDS011;49201;53.426;10.300;2023-06-14T13:40:10;3.55;;;2.90;;
63110;SDS011;49201;53.426;10.300;2023-06-14T13:42:36;6.18;;;3.10;;
63110;SDS011;49201;53.426;10.300;2023-06-14T13:45:02;4.40;;;2.97;;
63110;SDS011;49201;53.426;10.300;2023-06-14T13:47:29;4.38;;;2.78;;
63110;SDS011;49201;53.426;10.300;2023-06-14T13:49:55;4.30;;;2.60;;
63110;SDS011;49201;53.426;10.300;2023-06-14T13:52:21;3.30;;;2.50;;
63110;SDS011;49201;53.426;10.300;2023-06-14T13:54:47;9.35;;;2.95;;
63110;SDS011;49201;53.426;10.300;2023-06-14T13:57:12;3.83;;;2.75;;
63110;SDS011;49201;53.426;10.300;2023-06-14T13:59:38;7.25;;;2.95;;
63110;SDS011;49201;53.426;10.300;2023-06-14T14:02:05;6.85;;;2.67;;
63110;SDS011;49201;53.426;10.300;2023-06-14T14:04:31;4.53;;;2.63;;
63110;SDS011;49201;53.426;10.300;2023-06-14T14:06:57;6.25;;;2.65;;
63110;SDS011;49201;53.426;10.300;2023-06-14T14:09:22;4.65;;;3.10;;
63110;SDS011;49201;53.426;10.300;2023-06-14T14:11:48;4.15;;;2.70;;
63110;SDS011;49201;53.426;10.300;2023-06-14T14:14:14;6.88;;;3.05;;
63110;SDS011;49201;53.426;10.300;2023-06-14T14:16:39;4.03;;;2.85;;
63110;SDS011;49201;53.426;10.300;2023-06-14T14:19:05;5.82;;;2.70;;
63110;SDS011;49201;53.426;10.300;2023-06-14T14:21:31;4.28;;;2.70;;
63110;SDS011;49201;53.426;10.300;2023-06-14T14:23:57;4.95;;;3.08;;
63110;SDS011;49201;53.426;10.300;2023-06-14T14:26:23;5.78;;;2.75;;
63110;SDS011;49201;53.426;10.300;2023-06-14T14:28:50;4.78;;;2.90;;
63110;SDS011;49201;53.426;10.300;2023-06-14T14:31:16;7.28;;;2.92;;
63110;SDS011;49201;53.426;10.300;2023-06-14T14:33:41;7.18;;;2.97;;
63110;SDS011;49201;53.426;10.300;2023-06-14T14:36:07;5.65;;;3.15;;
63110;SDS011;49201;53.426;10.300;2023-06-14T14:38:33;5.75;;;2.53;;
63110;SDS011;49201;53.426;10.300;2023-06-14T14:40:58;3.95;;;2.63;;
63110;SDS011;49201;53.426;10.300;2023-06-14T14:43:24;5.85;;;2.95;;